createdAt,value
2022-11-09T00:01:18.801Z,13.50
2022-11-09T00:03:46.899Z,15.57
2022-11-09T00:06:16.076Z,13.20
2022-11-09T00:08:43.831Z,14.73
2022-11-09T00:11:12.836Z,16.23
2022-11-09T00:13:42.318Z,14.93
2022-11-09T00:16:11.401Z,15.33
2022-11-09T00:18:39.630Z,14.40
2022-11-09T00:21:08.149Z,12.53
2022-11-09T00:23:37.508Z,12.03
2022-11-09T00:26:08.580Z,12.50
2022-11-09T00:28:36.665Z,13.57
2022-11-09T00:31:07.606Z,14.40
2022-11-09T00:33:36.319Z,11.57
2022-11-09T00:36:08.292Z,7.03
2022-11-09T00:38:38.336Z,7.03
2022-11-09T00:41:07.309Z,7.43
2022-11-09T00:43:35.407Z,8.70
2022-11-09T00:46:03.713Z,7.90
2022-11-09T00:48:31.966Z,7.17
2022-11-09T00:50:59.908Z,7.70
2022-11-09T00:53:28.430Z,5.83
2022-11-09T00:55:58.864Z,8.17
2022-11-09T00:58:27.667Z,8.00
2022-11-09T01:00:56.286Z,6.90
2022-11-09T01:03:26.524Z,8.43
2022-11-09T01:05:54.486Z,5.33
2022-11-09T01:08:22.253Z,6.67
2022-11-09T01:10:50.118Z,5.10
2022-11-09T01:13:20.659Z,6.80
2022-11-09T01:15:50.279Z,9.97
2022-11-09T01:18:19.681Z,5.40
2022-11-09T01:20:51.064Z,9.00
2022-11-09T01:23:20.133Z,5.57
2022-11-09T01:25:48.129Z,6.20
2022-11-09T01:28:16.016Z,7.00
2022-11-09T01:30:45.165Z,5.77
2022-11-09T01:33:13.275Z,5.13
2022-11-09T01:35:42.063Z,9.73
2022-11-09T01:38:10.465Z,6.60
2022-11-09T01:40:40.249Z,6.13
2022-11-09T01:43:15.510Z,8.67
2022-11-09T01:45:49.473Z,8.73
2022-11-09T01:48:21.304Z,7.37
2022-11-09T01:50:52.761Z,7.30
2022-11-09T01:53:24.007Z,7.53
2022-11-09T01:55:55.704Z,5.43
2022-11-09T01:58:26.938Z,6.93
2022-11-09T02:00:59.884Z,11.00
2022-11-09T02:03:32.523Z,10.17
2022-11-09T02:06:02.573Z,7.87
2022-11-09T02:08:30.308Z,7.00
2022-11-09T02:11:07.779Z,8.90
2022-11-09T02:13:37.782Z,6.13
2022-11-09T02:16:08.296Z,7.90
2022-11-09T02:18:37.619Z,6.60
2022-11-09T02:21:07.316Z,5.17
2022-11-09T02:23:35.227Z,5.73
2022-11-09T02:26:08.267Z,9.33
2022-11-09T02:28:37.376Z,6.83
2022-11-09T02:31:11.438Z,5.23
2022-11-09T02:33:47.308Z,5.83
2022-11-09T02:36:16.373Z,4.97
2022-11-09T02:38:44.270Z,5.47
2022-11-09T02:41:13.969Z,5.87
2022-11-09T02:43:41.775Z,6.33
2022-11-09T02:46:10.084Z,4.73
2022-11-09T02:48:37.874Z,6.40
2022-11-09T02:51:05.820Z,5.47
2022-11-09T02:53:35.038Z,4.33
2022-11-09T02:56:03.366Z,4.57
2022-11-09T02:58:31.335Z,3.70
2022-11-09T03:00:59.122Z,3.73
2022-11-09T03:03:26.948Z,3.80
2022-11-09T03:05:54.691Z,2.60
2022-11-09T03:08:22.410Z,2.97
2022-11-09T03:10:51.866Z,3.90
2022-11-09T03:13:19.836Z,3.33
2022-11-09T03:15:47.879Z,3.23
2022-11-09T03:18:15.551Z,4.07
2022-11-09T03:20:43.250Z,3.30
2022-11-09T03:23:11.930Z,3.90
2022-11-09T03:25:39.702Z,3.27
2022-11-09T03:28:08.957Z,2.50
2022-11-09T03:30:36.728Z,3.70
2022-11-09T03:33:09.980Z,4.03
2022-11-09T03:35:37.991Z,2.90
2022-11-09T03:38:05.840Z,2.97
2022-11-09T03:40:34.117Z,3.93
2022-11-09T03:43:02.047Z,3.53
2022-11-09T03:45:32.309Z,3.73
2022-11-09T03:48:00.879Z,5.40
2022-11-09T03:50:30.471Z,5.03
2022-11-09T03:52:58.599Z,4.03
2022-11-09T03:55:27.163Z,5.00
2022-11-09T03:57:55.244Z,3.60
2022-11-09T04:00:24.147Z,3.63
2022-11-09T04:02:53.612Z,3.80
2022-11-09T04:05:22.119Z,4.77
2022-11-09T04:07:51.040Z,4.80
2022-11-09T04:10:19.589Z,3.60
2022-11-09T04:12:47.664Z,4.50
2022-11-09T04:15:15.487Z,3.27
2022-11-09T04:17:44.576Z,3.93
2022-11-09T04:20:14.188Z,2.90
2022-11-09T04:22:41.930Z,4.33
2022-11-09T04:25:10.037Z,4.13
2022-11-09T04:27:37.794Z,4.20
2022-11-09T04:30:06.785Z,5.20
2022-11-09T04:32:34.536Z,3.77
2022-11-09T04:35:02.270Z,3.20
2022-11-09T04:37:31.417Z,5.20
2022-11-09T04:39:59.226Z,2.63
2022-11-09T04:42:27.070Z,3.17
2022-11-09T04:44:54.793Z,4.13
2022-11-09T04:47:22.645Z,3.93
2022-11-09T04:49:50.463Z,4.57
2022-11-09T04:52:18.228Z,4.67
2022-11-09T04:54:47.343Z,4.07
2022-11-09T04:57:15.137Z,3.93
2022-11-09T04:59:42.921Z,3.83
2022-11-09T05:02:10.672Z,3.67
2022-11-09T05:04:38.456Z,6.67
2022-11-09T05:07:06.256Z,5.73
2022-11-09T05:09:34.183Z,4.40
2022-11-09T05:12:03.295Z,6.37
2022-11-09T05:14:31.058Z,5.93
2022-11-09T05:16:58.831Z,7.63
2022-11-09T05:19:26.628Z,3.73
2022-11-09T05:21:54.434Z,4.90
2022-11-09T05:24:21.195Z,6.97
2022-11-09T05:26:49.202Z,6.70
2022-11-09T05:29:18.335Z,5.00
2022-11-09T05:31:51.951Z,6.33
2022-11-09T05:34:20.170Z,5.03
2022-11-09T05:36:47.985Z,4.60
2022-11-09T05:39:15.800Z,4.60
2022-11-09T05:41:43.564Z,7.90
2022-11-09T05:44:11.368Z,8.97
2022-11-09T05:46:40.437Z,6.83
2022-11-09T05:49:08.167Z,4.40
2022-11-09T05:51:35.924Z,5.60
2022-11-09T05:54:03.791Z,6.50
2022-11-09T05:56:31.635Z,6.53
2022-11-09T05:58:59.556Z,4.63
2022-11-09T06:01:27.431Z,4.73
2022-11-09T06:03:56.613Z,4.87
2022-11-09T06:06:24.446Z,3.70
2022-11-09T06:08:52.588Z,5.50
2022-11-09T06:11:23.973Z,3.83
2022-11-09T06:13:53.065Z,6.37
2022-11-09T06:16:21.427Z,3.60
2022-11-09T06:18:49.230Z,4.37
2022-11-09T06:21:19.090Z,7.50
2022-11-09T06:23:46.867Z,3.23
2022-11-09T06:26:14.998Z,4.73
2022-11-09T06:28:43.434Z,6.87
2022-11-09T06:31:13.337Z,5.97
2022-11-09T06:33:41.125Z,5.57
2022-11-09T06:36:10.420Z,5.73
2022-11-09T06:38:39.665Z,4.47
2022-11-09T06:41:07.791Z,4.87
2022-11-09T06:43:35.499Z,4.73
2022-11-09T06:46:04.081Z,13.87
2022-11-09T06:48:32.122Z,6.50
2022-11-09T06:51:03.252Z,7.90
2022-11-09T06:53:32.243Z,6.03
2022-11-09T06:56:02.609Z,8.07
2022-11-09T06:58:31.131Z,10.77
2022-11-09T07:00:59.411Z,9.60
2022-11-09T07:03:27.596Z,9.57
2022-11-09T07:05:55.366Z,11.50
2022-11-09T07:08:23.207Z,8.53
2022-11-09T07:10:50.971Z,8.60
2022-11-09T07:13:20.593Z,9.87
2022-11-09T07:15:54.747Z,9.00
2022-11-09T07:18:22.486Z,10.43
2022-11-09T07:20:50.824Z,8.97
2022-11-09T07:23:19.115Z,7.90
2022-11-09T07:25:47.134Z,7.60
2022-11-09T07:28:16.152Z,8.17
2022-11-09T07:30:45.462Z,7.60
2022-11-09T07:33:15.567Z,8.43
2022-11-09T07:35:43.381Z,7.57
2022-11-09T07:38:11.315Z,7.13
2022-11-09T07:40:39.353Z,8.77
2022-11-09T07:43:07.829Z,5.80
2022-11-09T07:45:36.884Z,6.27
2022-11-09T07:48:08.747Z,6.13
2022-11-09T07:50:38.269Z,5.73
2022-11-09T07:53:07.654Z,6.87
2022-11-09T07:55:36.778Z,5.83
2022-11-09T07:58:08.224Z,6.40
2022-11-09T08:00:37.611Z,6.73
2022-11-09T08:03:08.317Z,6.00
2022-11-09T08:05:36.971Z,5.40
2022-11-09T08:08:06.554Z,6.70
2022-11-09T08:10:35.708Z,9.73
2022-11-09T08:13:06.661Z,6.07
2022-11-09T08:15:38.713Z,6.07
2022-11-09T08:18:10.865Z,5.40
2022-11-09T08:20:41.281Z,5.30
2022-11-09T08:23:12.990Z,5.00
2022-11-09T08:25:41.886Z,6.37
2022-11-09T08:28:14.540Z,4.97
2022-11-09T08:30:43.734Z,6.50
2022-11-09T08:33:13.562Z,4.30
2022-11-09T08:35:41.360Z,6.03
2022-11-09T08:38:09.289Z,4.47
2022-11-09T08:40:37.024Z,4.00
2022-11-09T08:43:06.431Z,4.30
2022-11-09T08:45:35.765Z,4.93
2022-11-09T08:48:04.689Z,4.93
2022-11-09T08:50:35.453Z,8.37
2022-11-09T08:53:04.703Z,5.63
2022-11-09T08:55:32.790Z,4.80
2022-11-09T08:58:02.483Z,4.47
2022-11-09T09:00:30.773Z,4.33
2022-11-09T09:02:59.082Z,4.40
2022-11-09T09:05:28.593Z,5.57
2022-11-09T09:07:59.538Z,4.27
2022-11-09T09:10:27.735Z,4.00
2022-11-09T09:12:55.534Z,4.07
2022-11-09T09:15:23.496Z,3.90
2022-11-09T09:17:51.289Z,3.40
2022-11-09T09:20:19.042Z,4.03
2022-11-09T09:22:46.762Z,3.23
2022-11-09T09:25:16.127Z,4.63
2022-11-09T09:27:45.883Z,3.30
2022-11-09T09:30:14.398Z,3.27
2022-11-09T09:32:42.789Z,3.23
2022-11-09T09:35:11.117Z,5.43
2022-11-09T09:37:38.899Z,3.93
2022-11-09T09:40:07.861Z,4.00
2022-11-09T09:42:38.708Z,2.43
2022-11-09T09:45:15.630Z,3.57
2022-11-09T09:47:50.486Z,4.03
2022-11-09T09:50:22.486Z,3.53
2022-11-09T09:53:24.257Z,2.47
2022-11-09T09:55:51.517Z,2.13
2022-11-09T09:58:26.454Z,2.97
2022-11-09T10:00:59.779Z,2.93
2022-11-09T10:03:27.772Z,1.37
2022-11-09T10:06:05.916Z,7.97
2022-11-09T10:08:46.310Z,4.40
2022-11-09T10:11:25.792Z,1.87
2022-11-09T10:14:30.999Z,1.30
2022-11-09T10:17:12.274Z,1.37
2022-11-09T10:19:55.643Z,2.30
2022-11-09T10:22:27.536Z,1.93
2022-11-09T10:27:53.234Z,3.67
2022-11-09T10:30:28.928Z,1.37
2022-11-09T10:32:59.018Z,2.57
2022-11-09T10:35:31.158Z,4.30
2022-11-09T10:37:58.945Z,2.87
2022-11-09T10:40:29.624Z,1.70
2022-11-09T10:42:59.534Z,1.07
2022-11-09T10:45:32.176Z,1.00
2022-11-09T10:48:00.800Z,3.47
2022-11-09T10:50:34.673Z,3.93
2022-11-09T10:53:10.930Z,3.03
2022-11-09T10:55:38.764Z,1.37
2022-11-09T10:58:22.271Z,2.40
2022-11-09T11:01:03.930Z,2.20
2022-11-09T11:03:35.604Z,1.80
2022-11-09T11:06:05.626Z,1.47
2022-11-09T11:08:37.204Z,3.50
2022-11-09T11:11:35.685Z,2.67
2022-11-09T11:14:17.190Z,2.23
2022-11-09T11:16:53.060Z,2.00
2022-11-09T11:19:38.406Z,1.50
2022-11-09T11:22:23.196Z,1.50
2022-11-09T11:24:59.011Z,2.20
2022-11-09T11:27:34.299Z,2.03
2022-11-09T11:30:08.346Z,2.10
2022-11-09T11:32:37.477Z,3.40
2022-11-09T11:35:13.032Z,2.17
2022-11-09T11:37:52.506Z,1.30
2022-11-09T11:40:26.014Z,0.60
2022-11-09T11:43:07.916Z,1.83
2022-11-09T11:45:42.804Z,2.27
2022-11-09T11:48:46.767Z,2.07
2022-11-09T11:51:19.516Z,1.97
2022-11-09T11:54:01.312Z,2.77
2022-11-09T11:56:34.453Z,3.90
2022-11-09T11:59:19.853Z,1.30
2022-11-09T12:02:01.939Z,1.77
2022-11-09T12:04:47.071Z,2.27
2022-11-09T12:07:31.088Z,3.00
2022-11-09T12:10:15.003Z,2.13
2022-11-09T12:12:53.412Z,3.33
2022-11-09T12:15:46.109Z,3.17
2022-11-09T12:18:28.432Z,2.50
2022-11-09T12:21:15.937Z,8.57
2022-11-09T12:24:01.500Z,2.97
2022-11-09T12:26:44.284Z,3.77
2022-11-09T12:29:20.368Z,1.83
2022-11-09T12:32:01.876Z,1.77
2022-11-09T12:34:35.182Z,6.40
2022-11-09T12:37:10.256Z,3.90
2022-11-09T12:39:41.889Z,3.63
2022-11-09T12:42:15.015Z,3.23
2022-11-09T12:44:49.148Z,3.30
2022-11-09T12:47:21.054Z,3.03
2022-11-09T12:49:49.077Z,2.33
2022-11-09T12:52:26.585Z,0.97
2022-11-09T12:54:55.761Z,3.80
2022-11-09T12:57:26.190Z,2.83
2022-11-09T12:59:55.621Z,6.37
2022-11-09T13:02:31.443Z,1.77
2022-11-09T13:05:01.088Z,2.40
2022-11-09T13:07:34.295Z,1.93
2022-11-09T13:10:03.347Z,2.53
2022-11-09T13:12:37.732Z,5.43
2022-11-09T13:15:24.328Z,2.50
2022-11-09T13:18:01.871Z,2.50
2022-11-09T13:20:56.525Z,2.07
2022-11-09T13:26:55.131Z,2.90
2022-11-09T13:29:26.122Z,5.27
2022-11-09T13:32:33.226Z,2.70
2022-11-09T13:35:02.606Z,2.93
2022-11-09T13:37:56.232Z,3.27
2022-11-09T13:40:46.987Z,2.20
2022-11-09T13:43:18.205Z,2.40
2022-11-09T13:45:48.321Z,2.23
2022-11-09T13:48:34.683Z,2.30
2022-11-09T13:51:05.388Z,4.43
2022-11-09T13:53:56.810Z,6.27
2022-11-09T13:56:35.090Z,6.60
2022-11-09T13:59:10.947Z,8.40
2022-11-09T14:01:47.903Z,2.67
2022-11-09T14:04:27.418Z,2.67
2022-11-09T14:07:03.585Z,2.50
2022-11-09T14:09:42.389Z,1.23
2022-11-09T14:12:27.589Z,3.83
2022-11-09T14:15:26.274Z,7.17
2022-11-09T14:18:08.542Z,1.20
2022-11-09T14:20:42.121Z,2.77
2022-11-09T14:23:18.180Z,5.20
2022-11-09T14:25:46.778Z,2.23
2022-11-09T14:28:28.053Z,2.23
2022-11-09T14:30:56.418Z,4.20
2022-11-09T14:33:26.871Z,2.73
2022-11-09T14:35:58.705Z,2.90
2022-11-09T14:38:31.015Z,2.87
2022-11-09T14:40:59.648Z,3.03
2022-11-09T14:43:32.644Z,3.67
2022-11-09T14:46:02.558Z,3.73
2022-11-09T14:48:32.938Z,4.23
2022-11-09T14:51:03.226Z,2.60
2022-11-09T14:53:33.486Z,4.40
2022-11-09T14:56:04.227Z,2.87
2022-11-09T14:58:37.076Z,3.30
2022-11-09T15:01:10.666Z,3.77
2022-11-09T15:03:38.421Z,2.50
2022-11-09T15:06:08.492Z,2.57
2022-11-09T15:08:40.231Z,3.13
2022-11-09T15:11:08.571Z,3.17
2022-11-09T15:13:40.618Z,1.80
2022-11-09T15:16:09.216Z,3.67
2022-11-09T15:18:43.841Z,2.07
2022-11-09T15:21:13.880Z,2.27
2022-11-09T15:23:43.917Z,1.73
2022-11-09T15:26:30.026Z,2.13
2022-11-09T15:28:59.184Z,3.77
2022-11-09T15:31:28.341Z,4.03
2022-11-09T15:33:57.714Z,2.80
2022-11-09T15:36:29.379Z,2.77
2022-11-09T15:39:01.000Z,1.63
2022-11-09T15:41:31.589Z,3.13
2022-11-09T15:44:00.757Z,2.57
2022-11-09T15:46:33.652Z,4.27
2022-11-09T15:49:13.972Z,2.57
2022-11-09T15:51:41.940Z,2.10
2022-11-09T15:54:09.904Z,1.97
2022-11-09T15:56:37.649Z,9.30
2022-11-09T15:59:07.594Z,11.40
2022-11-09T16:01:36.360Z,9.97
2022-11-09T16:04:04.256Z,5.87
2022-11-09T16:06:35.062Z,3.10
2022-11-09T16:09:05.099Z,3.23
2022-11-09T16:11:35.873Z,3.43
2022-11-09T16:14:04.618Z,4.93
2022-11-09T16:16:33.943Z,2.27
2022-11-09T16:19:02.541Z,2.70
2022-11-09T16:21:31.062Z,4.50
2022-11-09T16:23:59.702Z,2.07
2022-11-09T16:26:28.860Z,3.27
2022-11-09T16:28:56.843Z,3.27
2022-11-09T16:31:48.068Z,2.77
2022-11-09T16:34:16.071Z,2.00
2022-11-09T16:36:49.891Z,3.50
2022-11-09T16:39:21.942Z,1.93
2022-11-09T16:41:52.202Z,2.53
2022-11-09T16:44:23.599Z,2.70
2022-11-09T16:46:52.682Z,2.50
2022-11-09T16:49:22.429Z,2.03
2022-11-09T16:51:51.155Z,2.23
2022-11-09T16:54:19.082Z,3.20
2022-11-09T16:56:48.291Z,3.50
2022-11-09T16:59:16.646Z,4.00
2022-11-09T17:01:51.837Z,3.00
2022-11-09T17:15:52.778Z,3.63
2022-11-09T17:18:23.311Z,5.87
2022-11-09T17:20:53.196Z,2.23
2022-11-09T17:23:25.104Z,5.23
2022-11-09T17:26:06.490Z,3.70
2022-11-09T17:28:42.509Z,2.60
2022-11-09T17:31:59.861Z,3.63
2022-11-09T17:34:32.730Z,2.63
2022-11-09T17:37:05.031Z,4.93
2022-11-09T17:39:35.107Z,4.43
2022-11-09T17:42:04.438Z,3.40
2022-11-09T17:47:54.588Z,4.23
2022-11-09T17:50:24.323Z,2.20
2022-11-09T17:52:53.107Z,3.77
2022-11-09T17:55:23.678Z,3.37
2022-11-09T17:57:57.434Z,2.87
2022-11-09T18:00:29.284Z,1.67
2022-11-09T18:03:05.690Z,4.20
2022-11-09T18:05:40.946Z,2.77
2022-11-09T18:08:15.370Z,3.73
2022-11-09T18:10:46.593Z,3.03
2022-11-09T18:13:16.959Z,4.73
2022-11-09T18:15:51.634Z,4.00
2022-11-09T18:21:15.968Z,2.60
2022-11-09T18:24:09.643Z,3.30
2022-11-09T18:26:42.633Z,2.57
2022-11-09T18:29:14.893Z,4.33
2022-11-09T18:31:45.601Z,4.73
2022-11-09T18:34:17.232Z,2.73
2022-11-09T18:36:51.735Z,2.30
2022-11-09T18:39:28.881Z,6.30
2022-11-09T18:42:02.953Z,2.67
2022-11-09T18:44:41.650Z,2.43
2022-11-09T18:47:56.978Z,3.97
2022-11-09T18:50:31.429Z,3.57
2022-11-09T18:53:07.080Z,2.20
2022-11-09T18:55:41.870Z,4.07
2022-11-09T18:58:16.811Z,5.20
2022-11-09T19:00:55.170Z,3.17
2022-11-09T19:03:30.272Z,7.83
2022-11-09T19:06:06.525Z,2.47
2022-11-09T19:08:59.774Z,4.77
2022-11-09T19:11:33.008Z,5.60
2022-11-09T19:14:03.925Z,2.90
2022-11-09T19:16:38.138Z,6.50
2022-11-09T19:19:07.658Z,3.90
2022-11-09T19:21:40.806Z,3.37
2022-11-09T19:24:16.354Z,3.13
2022-11-09T19:27:03.182Z,5.70
2022-11-09T19:29:35.064Z,5.93
2022-11-09T19:32:10.606Z,5.10
2022-11-09T19:34:46.419Z,4.10
2022-11-09T19:37:18.658Z,4.03
2022-11-09T19:39:50.258Z,4.90
2022-11-09T19:42:19.694Z,4.93
2022-11-09T19:44:56.476Z,5.43
2022-11-09T19:47:36.203Z,4.60
2022-11-09T19:50:28.725Z,4.93
2022-11-09T19:53:22.679Z,5.73
2022-11-09T19:56:14.020Z,2.63
2022-11-09T19:59:31.678Z,7.27
2022-11-09T20:02:15.028Z,4.43
2022-11-09T20:04:46.864Z,4.17
2022-11-09T20:07:24.033Z,4.50
2022-11-09T20:09:57.854Z,3.60
2022-11-09T20:12:48.600Z,5.67
2022-11-09T20:15:17.735Z,4.33
2022-11-09T20:17:47.956Z,6.17
2022-11-09T20:20:19.205Z,3.97
2022-11-09T20:22:52.766Z,4.43
2022-11-09T20:25:22.200Z,5.53
2022-11-09T20:27:56.137Z,6.87
2022-11-09T20:30:50.810Z,7.03
2022-11-09T20:33:38.489Z,7.07
2022-11-09T20:39:22.223Z,7.63
2022-11-09T20:41:52.441Z,4.53
2022-11-09T20:44:22.801Z,6.10
2022-11-09T20:46:51.499Z,5.43
2022-11-09T20:49:20.633Z,4.20
2022-11-09T20:51:50.223Z,4.53
2022-11-09T20:54:19.933Z,6.50
2022-11-09T20:56:52.450Z,3.83
2022-11-09T20:59:23.290Z,5.40
2022-11-09T21:02:00.925Z,6.30
2022-11-09T21:04:31.690Z,6.27
2022-11-09T21:07:00.161Z,7.13
2022-11-09T21:09:28.320Z,4.70
2022-11-09T21:12:13.667Z,4.63
2022-11-09T21:14:43.540Z,6.07
2022-11-09T21:17:12.059Z,7.40
2022-11-09T21:19:40.002Z,7.07
2022-11-09T21:22:07.966Z,4.90
2022-11-09T21:24:54.152Z,4.87
2022-11-09T21:27:42.100Z,6.23
2022-11-09T21:30:14.991Z,5.73
2022-11-09T21:32:42.827Z,3.50
2022-11-09T21:35:10.767Z,6.13
2022-11-09T21:37:38.655Z,6.80
2022-11-09T21:40:08.421Z,7.43
2022-11-09T21:42:36.639Z,2.70
2022-11-09T21:45:05.192Z,5.67
2022-11-09T21:47:34.548Z,6.70
2022-11-09T21:50:02.391Z,4.53
2022-11-09T21:52:30.322Z,5.37
2022-11-09T21:54:59.050Z,7.30
2022-11-09T21:57:29.431Z,5.87
2022-11-09T22:00:48.267Z,4.47
2022-11-09T22:03:30.518Z,10.30
2022-11-09T22:06:03.250Z,4.90
2022-11-09T22:08:37.999Z,5.53
2022-11-09T22:11:10.508Z,5.23
2022-11-09T22:13:59.274Z,6.53
2022-11-09T22:16:32.721Z,8.23
2022-11-09T22:19:21.684Z,7.57
2022-11-09T22:21:49.862Z,6.43
2022-11-09T22:24:18.576Z,7.57
2022-11-09T22:26:46.884Z,7.77
2022-11-09T22:29:15.409Z,6.13
2022-11-09T22:31:43.563Z,5.03
2022-11-09T22:34:12.743Z,4.70
2022-11-09T22:36:40.641Z,7.37
2022-11-09T22:39:08.503Z,4.97
2022-11-09T22:41:36.374Z,6.13
2022-11-09T22:44:04.418Z,7.07
2022-11-09T22:46:32.815Z,9.27
2022-11-09T22:49:00.787Z,9.40
2022-11-09T22:51:30.097Z,4.50
2022-11-09T22:53:58.151Z,5.50
2022-11-09T22:56:26.158Z,10.27
2022-11-09T22:58:54.192Z,6.50
2022-11-09T23:01:22.317Z,6.27
2022-11-09T23:03:50.398Z,7.40
2022-11-09T23:06:21.609Z,7.50
2022-11-09T23:08:51.356Z,5.57
2022-11-09T23:11:21.909Z,7.10
2022-11-09T23:13:51.154Z,6.30
2022-11-09T23:16:19.171Z,9.57
2022-11-09T23:18:56.558Z,4.07
2022-11-09T23:21:28.138Z,6.83
2022-11-09T23:24:00.307Z,5.77
2022-11-09T23:26:28.071Z,7.37
2022-11-09T23:28:56.169Z,6.80
2022-11-09T23:31:25.063Z,7.13
2022-11-09T23:33:54.419Z,6.37
2022-11-09T23:36:23.260Z,7.97
2022-11-09T23:38:51.757Z,8.07
2022-11-09T23:41:21.509Z,12.43
2022-11-09T23:43:50.279Z,11.47
2022-11-09T23:46:18.629Z,6.53
2022-11-09T23:48:46.729Z,7.03
2022-11-09T23:51:14.648Z,4.50
2022-11-09T23:53:42.531Z,5.10
2022-11-09T23:56:12.685Z,10.40
2022-11-09T23:58:41.995Z,10.20
